createdAt,value
2018-01-04T00:00:52.631Z,98355
2018-01-04T00:03:20.690Z,98338
2018-01-04T00:05:48.802Z,98335
2018-01-04T00:08:16.858Z,98339
2018-01-04T00:10:44.942Z,98350
2018-01-04T00:13:13.115Z,98338
2018-01-04T00:15:41.382Z,98360
2018-01-04T00:18:09.455Z,98357
2018-01-04T00:20:37.527Z,98400
2018-01-04T00:23:05.615Z,98366
2018-01-04T00:25:33.678Z,98371
2018-01-04T00:28:02.211Z,98368
2018-01-04T00:30:30.290Z,98377
2018-01-04T00:32:58.354Z,98374
2018-01-04T00:35:26.775Z,98379
2018-01-04T00:37:54.941Z,98378
2018-01-04T00:40:23.015Z,98390
2018-01-04T00:42:51.080Z,98390
2018-01-04T00:45:19.146Z,98386
2018-01-04T00:47:47.218Z,98387
2018-01-04T00:50:15.286Z,98402
2018-01-04T00:55:16.927Z,98430
2018-01-04T00:57:45.034Z,98425
2018-01-04T01:00:13.103Z,98428
2018-01-04T01:02:41.166Z,98414
2018-01-04T01:05:09.231Z,98429
2018-01-04T01:07:37.303Z,98456
2018-01-04T01:10:05.386Z,98427
2018-01-04T01:12:33.559Z,98437
2018-01-04T01:15:01.638Z,98453
2018-01-04T01:17:29.727Z,98447
2018-01-04T01:19:58.559Z,98447
2018-01-04T01:22:26.623Z,98450
2018-01-04T01:24:54.697Z,98461
2018-01-04T01:27:22.767Z,98437
2018-01-04T01:29:50.844Z,98456
2018-01-04T01:32:18.902Z,98444
2018-01-04T01:34:47.015Z,98452
2018-01-04T01:37:15.082Z,98455
2018-01-04T01:39:43.153Z,98466
2018-01-04T01:42:11.214Z,98435
2018-01-04T01:44:39.286Z,98453
2018-01-04T01:47:07.375Z,98490
2018-01-04T01:49:35.542Z,98439
2018-01-04T01:52:03.602Z,98440
2018-01-04T01:54:31.672Z,98452
2018-01-04T01:56:59.746Z,98484
2018-01-04T01:59:27.833Z,98501
2018-01-04T02:01:55.995Z,98457
2018-01-04T02:04:24.114Z,98449
2018-01-04T02:06:52.199Z,98454
2018-01-04T02:09:20.254Z,98458
2018-01-04T02:11:48.375Z,98502
2018-01-04T02:14:16.451Z,98487
2018-01-04T02:16:44.629Z,98462
2018-01-04T02:19:30.695Z,98479
2018-01-04T02:22:16.571Z,98483
2018-01-04T02:25:02.578Z,98492
2018-01-04T02:27:48.719Z,98484
2018-01-04T02:30:35.354Z,98486
2018-01-04T02:36:32.124Z,98507
2018-01-04T02:39:18.062Z,98501
2018-01-04T02:42:04.124Z,98508
2018-01-04T02:44:40.556Z,98498
2018-01-04T02:47:08.632Z,98511
2018-01-04T02:49:36.695Z,98498
2018-01-04T02:52:04.766Z,98504
2018-01-04T02:54:32.828Z,98515
2018-01-04T02:57:01.054Z,98523
2018-01-04T02:59:29.139Z,98513
2018-01-04T03:01:57.211Z,98523
2018-01-04T03:04:25.379Z,98542
2018-01-04T03:06:53.551Z,98526
2018-01-04T03:09:21.723Z,98520
2018-01-04T03:11:49.796Z,98528
2018-01-04T03:14:17.878Z,98579
2018-01-04T03:16:46.174Z,98535
2018-01-04T03:19:15.067Z,98551
2018-01-04T03:24:54.565Z,98562
2018-01-04T03:27:28.325Z,98535
2018-01-04T03:30:02.075Z,98550
2018-01-04T03:32:35.635Z,98556
2018-01-04T03:35:09.302Z,98552
2018-01-04T03:37:42.874Z,98559
2018-01-04T03:40:16.434Z,98550
2018-01-04T03:42:50.138Z,98579
2018-01-04T03:45:23.899Z,98559
2018-01-04T03:47:57.487Z,98576
2018-01-04T03:50:31.054Z,98573
2018-01-04T03:52:59.127Z,98595
2018-01-04T03:55:32.878Z,98579
2018-01-04T03:58:01.579Z,98573
2018-01-04T04:00:36.160Z,98577
2018-01-04T04:03:04.211Z,98583
2018-01-04T04:05:37.925Z,98595
2018-01-04T04:08:11.576Z,98592
2018-01-04T04:10:39.638Z,98650
2018-01-04T04:13:07.795Z,98602
2018-01-04T04:15:35.978Z,98603
2018-01-04T04:18:04.052Z,98609
2018-01-04T04:20:32.120Z,98602
2018-01-04T04:23:00.796Z,98605
2018-01-04T04:25:29.209Z,98636
2018-01-04T04:27:58.029Z,98628
2018-01-04T04:30:26.101Z,98620
2018-01-04T04:32:54.166Z,98621
2018-01-04T04:35:22.272Z,98621
2018-01-04T04:37:50.344Z,98652
2018-01-04T04:40:18.410Z,98637
2018-01-04T04:42:46.581Z,98627
2018-01-04T04:45:14.764Z,98656
2018-01-04T04:47:43.582Z,98662
2018-01-04T04:50:12.414Z,98646
2018-01-04T04:52:41.196Z,98660
2018-01-04T04:55:09.262Z,98653
2018-01-04T04:57:37.338Z,98660
2018-01-04T05:00:05.411Z,98656
2018-01-04T05:02:33.483Z,98665
2018-01-04T05:05:01.559Z,98672
2018-01-04T05:07:29.617Z,98682
2018-01-04T05:09:57.683Z,98672
2018-01-04T05:12:25.754Z,98668
2018-01-04T05:14:53.814Z,98688
2018-01-04T05:17:21.882Z,98693
2018-01-04T05:19:50.002Z,98687
2018-01-04T05:22:18.075Z,98689
2018-01-04T05:24:46.142Z,98691
2018-01-04T05:27:15.654Z,98710
2018-01-04T05:29:44.129Z,98695
2018-01-04T05:32:12.337Z,98693
2018-01-04T05:34:40.409Z,98703
2018-01-04T05:37:08.470Z,98700
2018-01-04T05:39:37.341Z,98714
2018-01-04T05:42:05.420Z,98701
2018-01-04T05:44:33.479Z,98715
2018-01-04T05:47:01.576Z,98712
2018-01-04T05:49:29.650Z,98712
2018-01-04T05:51:58.479Z,98710
2018-01-04T05:54:26.555Z,98721
2018-01-04T05:56:54.622Z,98727
2018-01-04T05:59:22.695Z,98710
2018-01-04T06:01:50.766Z,98700
2018-01-04T06:04:18.829Z,98714
2018-01-04T06:06:46.902Z,98737
2018-01-04T06:09:14.979Z,98718
2018-01-04T06:11:43.062Z,98721
2018-01-04T06:14:11.744Z,98731
2018-01-04T06:16:39.815Z,98718
2018-01-04T06:19:07.899Z,98720
2018-01-04T06:21:35.962Z,98722
2018-01-04T06:24:04.461Z,98716
2018-01-04T06:26:33.318Z,98734
2018-01-04T06:29:01.404Z,98743
2018-01-04T06:31:30.275Z,98748
2018-01-04T06:33:58.342Z,98739
2018-01-04T06:36:26.411Z,98741
2018-01-04T06:38:54.480Z,98732
2018-01-04T06:41:22.587Z,98750
2018-01-04T06:43:50.649Z,98738
2018-01-04T06:46:18.727Z,98745
2018-01-04T06:48:47.578Z,98757
2018-01-04T06:51:15.651Z,98747
2018-01-04T06:53:43.747Z,98755
2018-01-04T06:56:11.821Z,98735
2018-01-04T06:58:39.882Z,98741
2018-01-04T07:01:07.975Z,98752
2018-01-04T07:03:36.028Z,98762
2018-01-04T07:06:04.110Z,98760
2018-01-04T07:08:32.171Z,98777
2018-01-04T07:11:00.248Z,98774
2018-01-04T07:13:28.319Z,98779
2018-01-04T07:15:57.103Z,98794
2018-01-04T07:18:25.687Z,98787
2018-01-04T07:20:53.771Z,98788
2018-01-04T07:23:22.607Z,98783
2018-01-04T07:25:50.666Z,98805
2018-01-04T07:28:18.751Z,98809
2018-01-04T07:30:46.815Z,98807
2018-01-04T07:33:14.884Z,98813
2018-01-04T07:35:42.959Z,98810
2018-01-04T07:38:11.064Z,98811
2018-01-04T07:40:39.130Z,98819
2018-01-04T07:43:07.203Z,98825
2018-01-04T07:45:35.392Z,98826
2018-01-04T07:48:04.262Z,98833
2018-01-04T07:50:32.332Z,98826
2018-01-04T07:53:00.418Z,98822
2018-01-04T07:55:28.490Z,98831
2018-01-04T07:57:57.338Z,98838
2018-01-04T08:00:25.435Z,98828
2018-01-04T08:02:53.603Z,98841
2018-01-04T08:05:21.671Z,98837
2018-01-04T08:07:49.746Z,98849
2018-01-04T08:10:17.847Z,98842
2018-01-04T08:12:46.674Z,98845
2018-01-04T08:15:14.742Z,98850
2018-01-04T08:17:42.814Z,98854
2018-01-04T08:20:10.978Z,98845
2018-01-04T08:22:39.840Z,98854
2018-01-04T08:25:08.686Z,98861
2018-01-04T08:27:36.754Z,98864
2018-01-04T08:30:04.832Z,98865
2018-01-04T08:32:32.907Z,98873
2018-01-04T08:35:00.984Z,98868
2018-01-04T08:37:29.051Z,98887
2018-01-04T08:39:57.118Z,98882
2018-01-04T08:42:25.184Z,98875
2018-01-04T08:44:53.267Z,98869
2018-01-04T08:47:21.332Z,98882
2018-01-04T08:49:49.403Z,98878
2018-01-04T08:52:17.487Z,98890
2018-01-04T08:54:45.560Z,98895
2018-01-04T08:57:14.398Z,98888
2018-01-04T08:59:42.458Z,98892
2018-01-04T09:02:10.522Z,98888
2018-01-04T09:04:38.598Z,98893
2018-01-04T09:07:06.674Z,98890
2018-01-04T09:09:35.216Z,98896
2018-01-04T09:12:04.067Z,98906
2018-01-04T09:14:32.143Z,98918
2018-01-04T09:17:00.215Z,98896
2018-01-04T09:19:28.295Z,98892
2018-01-04T09:21:56.383Z,98902
2018-01-04T09:24:24.442Z,98898
2018-01-04T09:26:52.527Z,98932
2018-01-04T09:29:20.590Z,98896
2018-01-04T09:31:48.719Z,98907
2018-01-04T09:34:16.803Z,98907
2018-01-04T09:36:44.884Z,98911
2018-01-04T09:39:12.963Z,98911
2018-01-04T09:41:41.722Z,98913
2018-01-04T09:44:09.991Z,98900
2018-01-04T09:46:38.060Z,98904
2018-01-04T09:49:06.127Z,98917
2018-01-04T09:51:34.207Z,98916
2018-01-04T09:54:03.308Z,98919
2018-01-04T09:56:31.469Z,98918
2018-01-04T09:58:59.532Z,98915
2018-01-04T10:01:27.880Z,98923
2018-01-04T10:03:56.724Z,98912
2018-01-04T10:06:24.783Z,98919
2018-01-04T10:08:52.855Z,98931
2018-01-04T10:11:20.926Z,98926
2018-01-04T10:13:48.994Z,98935
2018-01-04T10:16:17.072Z,98919
2018-01-04T10:18:45.733Z,98918
2018-01-04T10:21:13.796Z,98922
2018-01-04T10:23:41.855Z,98922
2018-01-04T10:26:11.411Z,98931
2018-01-04T10:28:39.832Z,98925
2018-01-04T10:31:08.670Z,98922
2018-01-04T10:33:36.750Z,98922
2018-01-04T10:36:04.837Z,98914
2018-01-04T10:38:33.495Z,98918
2018-01-04T10:41:01.559Z,98920
2018-01-04T10:43:29.621Z,98930
2018-01-04T10:45:57.710Z,98922
2018-01-04T10:48:25.771Z,98921
2018-01-04T10:50:53.839Z,98919
2018-01-04T10:53:21.910Z,98932
2018-01-04T10:55:49.987Z,98932
2018-01-04T10:58:18.047Z,98919
2018-01-04T11:00:46.119Z,98917
2018-01-04T11:03:14.183Z,98922
2018-01-04T11:05:42.242Z,98912
2018-01-04T11:08:10.692Z,98923
2018-01-04T11:10:39.523Z,98918
2018-01-04T11:13:07.590Z,98914
2018-01-04T11:15:35.676Z,98911
2018-01-04T11:18:03.770Z,98921
2018-01-04T11:20:31.942Z,98910
2018-01-04T11:23:00.103Z,98918
2018-01-04T11:25:28.171Z,98910
2018-01-04T11:27:56.232Z,98907
2018-01-04T11:30:24.287Z,98905
2018-01-04T11:32:52.365Z,98914
2018-01-04T11:35:20.423Z,98911
2018-01-04T11:37:48.486Z,98909
2018-01-04T11:40:16.651Z,98918
2018-01-04T11:42:45.474Z,98934
2018-01-04T11:45:13.579Z,98923
2018-01-04T11:47:41.650Z,98927
2018-01-04T11:50:09.810Z,98940
2018-01-04T11:52:37.876Z,98930
2018-01-04T11:55:05.942Z,98917
2018-01-04T11:57:34.022Z,98937
2018-01-04T12:00:02.090Z,98928
2018-01-04T12:02:30.154Z,98928
2018-01-04T12:04:58.218Z,98921
2018-01-04T12:07:26.282Z,98915
2018-01-04T12:09:54.350Z,98915
2018-01-04T12:12:22.415Z,98922
2018-01-04T12:14:50.503Z,98911
2018-01-04T12:17:18.572Z,98906
2018-01-04T12:19:46.632Z,98928
2018-01-04T12:22:14.699Z,98912
2018-01-04T12:24:42.807Z,98907
2018-01-04T12:27:10.971Z,98913
2018-01-04T12:29:39.047Z,98925
2018-01-04T12:32:07.224Z,98921
2018-01-04T12:34:38.455Z,98910
2018-01-04T12:37:06.522Z,98903
2018-01-04T12:39:34.589Z,98907
2018-01-04T12:42:02.663Z,98927
2018-01-04T12:44:30.744Z,98898
2018-01-04T12:46:58.805Z,98906
2018-01-04T12:49:26.874Z,98916
2018-01-04T12:51:54.959Z,98895
2018-01-04T12:54:23.016Z,98896
2018-01-04T12:56:51.085Z,98902
2018-01-04T12:59:19.148Z,98897
2018-01-04T13:01:47.199Z,98901
2018-01-04T13:04:15.768Z,98908
2018-01-04T13:06:43.831Z,98897
2018-01-04T13:09:12.012Z,98896
2018-01-04T13:11:40.104Z,98912
2018-01-04T13:14:08.178Z,98901
2018-01-04T13:16:36.252Z,98910
2018-01-04T13:19:04.320Z,98898
2018-01-04T13:21:32.414Z,98893
2018-01-04T13:24:01.202Z,98907
2018-01-04T13:26:29.371Z,98900
2018-01-04T13:28:57.476Z,98906
2018-01-04T13:31:26.307Z,98910
2018-01-04T13:33:54.386Z,98911
2018-01-04T13:36:22.914Z,98913
2018-01-04T13:38:51.738Z,98919
2018-01-04T13:41:19.798Z,98901
2018-01-04T13:43:47.862Z,98908
2018-01-04T13:46:15.982Z,98911
2018-01-04T13:48:44.055Z,98908
2018-01-04T13:51:12.127Z,98901
2018-01-04T13:53:40.199Z,98909
2018-01-04T13:56:08.750Z,98907
2018-01-04T13:58:36.808Z,98921
2018-01-04T14:01:05.146Z,98901
2018-01-04T14:03:33.217Z,98898
2018-01-04T14:06:01.279Z,98895
2018-01-04T14:08:29.337Z,98891
2018-01-04T14:10:57.770Z,98888
2018-01-04T14:13:25.838Z,98889
2018-01-04T14:15:53.912Z,98898
2018-01-04T14:18:21.970Z,98896
2018-01-04T14:20:50.803Z,98884
2018-01-04T14:23:18.878Z,98890
2018-01-04T14:25:46.943Z,98889
2018-01-04T14:28:15.046Z,98884
2018-01-04T14:30:43.203Z,98887
2018-01-04T14:33:11.304Z,98883
2018-01-04T14:35:40.131Z,98882
2018-01-04T14:38:08.205Z,98894
2018-01-04T14:40:36.267Z,98883
2018-01-04T14:43:04.347Z,98887
2018-01-04T14:45:32.586Z,98885
2018-01-04T14:48:00.672Z,98898
2018-01-04T14:50:28.745Z,98904
2018-01-04T14:52:56.816Z,98905
2018-01-04T14:55:25.084Z,98900
2018-01-04T14:57:53.163Z,98892
2018-01-04T15:00:21.231Z,98910
2018-01-04T15:02:49.298Z,98903
2018-01-04T15:05:17.375Z,98902
2018-01-04T15:07:45.443Z,98891
2018-01-04T15:10:13.551Z,98893
2018-01-04T15:12:41.623Z,98895
2018-01-04T15:15:09.683Z,98893
2018-01-04T15:17:37.751Z,98899
2018-01-04T15:20:05.848Z,98882
2018-01-04T15:22:33.916Z,98885
2018-01-04T15:25:02.097Z,98879
2018-01-04T15:27:31.082Z,98889
2018-01-04T15:29:59.171Z,98883
2018-01-04T15:32:28.044Z,98888
2018-01-04T15:34:56.169Z,98902
2018-01-04T15:37:24.227Z,98888
2018-01-04T15:39:52.321Z,98880
2018-01-04T15:42:20.382Z,98880
2018-01-04T15:44:48.470Z,98886
2018-01-04T15:47:16.534Z,98890
2018-01-04T15:49:44.606Z,98890
2018-01-04T15:52:12.694Z,98879
2018-01-04T15:54:40.767Z,98881
2018-01-04T15:57:08.838Z,98882
2018-01-04T15:59:36.919Z,98867
2018-01-04T16:02:05.402Z,98863
2018-01-04T16:04:33.875Z,98864
2018-01-04T16:07:02.166Z,98860
2018-01-04T16:09:30.318Z,98857
2018-01-04T16:11:58.795Z,98840
2018-01-04T16:14:26.869Z,98845
2018-01-04T16:16:54.959Z,98838
2018-01-04T16:19:23.116Z,98843
2018-01-04T16:21:51.190Z,98843
2018-01-04T16:24:19.265Z,98835
2018-01-04T16:26:48.239Z,98834
2018-01-04T16:29:16.313Z,98834
2018-01-04T16:31:44.863Z,98845
2018-01-04T16:34:12.934Z,98836
2018-01-04T16:36:41.024Z,98833
2018-01-04T16:39:09.101Z,98826
2018-01-04T16:41:37.172Z,98825
2018-01-04T16:44:05.242Z,98822
2018-01-04T16:46:33.307Z,98814
2018-01-04T16:49:01.384Z,98814
2018-01-04T16:51:29.455Z,98803
2018-01-04T16:53:57.539Z,98799
2018-01-04T16:56:25.727Z,98792
2018-01-04T16:58:53.876Z,98798
2018-01-04T17:01:21.936Z,98793
2018-01-04T17:03:50.035Z,98788
2018-01-04T17:06:18.880Z,98787
2018-01-04T17:08:46.994Z,98787
2018-01-04T17:11:15.171Z,98778
2018-01-04T17:13:43.231Z,98777
2018-01-04T17:16:11.307Z,98777
2018-01-04T17:18:39.811Z,98772
2018-01-04T17:21:08.658Z,98782
2018-01-04T17:23:36.731Z,98771
2018-01-04T17:26:04.801Z,98780
2018-01-04T17:28:32.872Z,98775
2018-01-04T17:31:01.046Z,98772
2018-01-04T17:33:29.089Z,98768
2018-01-04T17:35:57.155Z,98769
2018-01-04T17:38:25.224Z,98759
2018-01-04T17:40:53.295Z,98763
2018-01-04T17:43:21.719Z,98761
2018-01-04T17:45:49.886Z,98754
2018-01-04T17:48:17.955Z,98754
2018-01-04T17:50:46.018Z,98752
2018-01-04T17:53:14.099Z,98744
2018-01-04T17:55:42.175Z,98747
2018-01-04T17:58:10.323Z,98743
2018-01-04T18:00:38.422Z,98749
2018-01-04T18:03:07.260Z,98743
2018-01-04T18:05:35.366Z,98737
2018-01-04T18:08:03.448Z,98729
2018-01-04T18:10:31.547Z,98731
2018-01-04T18:12:59.623Z,98730
2018-01-04T18:15:27.696Z,98738
2018-01-04T18:17:56.450Z,98744
2018-01-04T18:20:25.325Z,98747
2018-01-04T18:22:53.402Z,98739
2018-01-04T18:25:21.480Z,98739
2018-01-04T18:27:49.560Z,98725
2018-01-04T18:30:18.386Z,98724
2018-01-04T18:32:46.508Z,98722
2018-01-04T18:35:14.593Z,98720
2018-01-04T18:37:43.439Z,98715
2018-01-04T18:40:12.167Z,98722
2018-01-04T18:42:41.003Z,98722
2018-01-04T18:45:09.099Z,98721
2018-01-04T18:47:37.370Z,98712
2018-01-04T18:50:05.444Z,98705
2018-01-04T18:52:33.511Z,98692
2018-01-04T18:55:01.588Z,98690
2018-01-04T18:57:29.658Z,98698
2018-01-04T18:59:57.924Z,98689
2018-01-04T19:02:26.027Z,98693
2018-01-04T19:04:54.071Z,98692
2018-01-04T19:07:22.148Z,98688
2018-01-04T19:09:50.224Z,98677
2018-01-04T19:12:18.282Z,98683
2018-01-04T19:14:46.358Z,98668
2018-01-04T19:17:14.446Z,98671
2018-01-04T19:19:42.522Z,98656
2018-01-04T19:22:11.498Z,98662
2018-01-04T19:24:39.573Z,98664
2018-01-04T19:27:07.642Z,98655
2018-01-04T19:29:35.714Z,98657
2018-01-04T19:32:04.842Z,98652
2018-01-04T19:34:32.911Z,98656
2018-01-04T19:37:01.036Z,98654
2018-01-04T19:39:29.106Z,98642
2018-01-04T19:41:57.184Z,98648
2018-01-04T19:44:25.271Z,98638
2018-01-04T19:46:54.114Z,98631
2018-01-04T19:49:22.212Z,98630
2018-01-04T19:51:50.655Z,98611
2018-01-04T19:54:18.735Z,98610
2018-01-04T19:56:46.813Z,98608
2018-01-04T19:59:14.879Z,98605
2018-01-04T20:01:42.951Z,98615
2018-01-04T20:04:11.020Z,98596
2018-01-04T20:06:39.127Z,98593
2018-01-04T20:09:07.231Z,98574
2018-01-04T20:11:35.304Z,98586
2018-01-04T20:14:03.471Z,98586
2018-01-04T20:16:32.300Z,98581
2018-01-04T20:19:00.388Z,98579
2018-01-04T20:21:28.783Z,98569
2018-01-04T20:23:57.663Z,98566
2018-01-04T20:26:25.732Z,98566
2018-01-04T20:28:53.839Z,98560
2018-01-04T20:31:22.099Z,98549
2018-01-04T20:33:50.955Z,98536
2018-01-04T20:36:19.027Z,98534
2018-01-04T20:38:47.129Z,98535
2018-01-04T20:41:15.966Z,98527
2018-01-04T20:43:44.047Z,98522
2018-01-04T20:46:12.127Z,98516
2018-01-04T20:48:40.190Z,98519
2018-01-04T20:51:08.284Z,98515
2018-01-04T20:53:36.702Z,98519
2018-01-04T20:56:04.770Z,98511
2018-01-04T20:58:32.842Z,98514
2018-01-04T21:01:00.966Z,98486
2018-01-04T21:03:29.031Z,98479
2018-01-04T21:05:57.104Z,98479
2018-01-04T21:08:25.422Z,98478
2018-01-04T21:10:54.267Z,98474
2018-01-04T21:13:22.338Z,98452
2018-01-04T21:15:50.410Z,98449
2018-01-04T21:18:18.583Z,98448
2018-01-04T21:20:46.664Z,98450
2018-01-04T21:23:14.732Z,98452
2018-01-04T21:25:43.143Z,98446
2018-01-04T21:28:11.223Z,98449
2018-01-04T21:30:39.290Z,98440
2018-01-04T21:33:07.368Z,98435
2018-01-04T21:35:35.454Z,98427
2018-01-04T21:38:03.523Z,98428
2018-01-04T21:40:31.596Z,98418
2018-01-04T21:42:59.743Z,98408
2018-01-04T21:45:28.568Z,98398
2018-01-04T21:47:56.664Z,98402
2018-01-04T21:50:24.752Z,98410
2018-01-04T21:52:53.618Z,98402
2018-01-04T21:55:21.791Z,98413
2018-01-04T21:57:49.861Z,98413
2018-01-04T22:00:17.938Z,98403
2018-01-04T22:02:46.099Z,98415
2018-01-04T22:05:14.174Z,98431
2018-01-04T22:07:42.252Z,98407
2018-01-04T22:10:10.326Z,98404
2018-01-04T22:12:38.496Z,98407
2018-01-04T22:15:06.576Z,98408
2018-01-04T22:17:34.649Z,98394
2018-01-04T22:20:02.717Z,98386
2018-01-04T22:22:31.558Z,98382
2018-01-04T22:24:59.668Z,98381
2018-01-04T22:27:27.839Z,98366
2018-01-04T22:29:55.920Z,98363
2018-01-04T22:32:24.758Z,98372
2018-01-04T22:34:53.026Z,98365
2018-01-04T22:37:21.495Z,98369
2018-01-04T22:39:49.642Z,98364
2018-01-04T22:42:17.794Z,98377
2018-01-04T22:44:45.875Z,98372
2018-01-04T22:47:13.954Z,98376
2018-01-04T22:49:43.357Z,98361
2018-01-04T22:52:12.188Z,98354
2018-01-04T22:54:40.606Z,98365
2018-01-04T22:57:09.274Z,98367
2018-01-04T22:59:37.362Z,98372
2018-01-04T23:02:05.435Z,98367
2018-01-04T23:04:33.490Z,98372
2018-01-04T23:07:01.575Z,98368
2018-01-04T23:09:29.649Z,98372
2018-01-04T23:11:57.723Z,98375
2018-01-04T23:14:25.889Z,98376
2018-01-04T23:16:54.060Z,98388
2018-01-04T23:19:22.115Z,98396
2018-01-04T23:21:50.191Z,98396
2018-01-04T23:24:18.254Z,98366
2018-01-04T23:26:46.338Z,98367
2018-01-04T23:29:14.407Z,98369
2018-01-04T23:31:42.476Z,98374
2018-01-04T23:34:10.539Z,98369
2018-01-04T23:36:38.601Z,98362
2018-01-04T23:39:06.674Z,98363
2018-01-04T23:41:34.754Z,98378
2018-01-04T23:44:03.348Z,98376
2018-01-04T23:46:31.554Z,98382
2018-01-04T23:48:59.631Z,98376
2018-01-04T23:51:27.773Z,98383
2018-01-04T23:53:55.881Z,98379
2018-01-04T23:56:23.953Z,98377
2018-01-04T23:58:52.014Z,98379
